Time;durP1;ratioP1;P1;durP2;ratioP2;P2;SDS_P1;SDS_P2;PMS_P1;PMS_P2;Temp;Humidity;BMP_temperature;BMP_pressure;BME280_temperature;BME280_humidity;BME280_pressure;Samples;Min_cycle;Max_cycle;Signal;HPM_P1;HPM_P2
2021/08/22 13:48:50;;;;;;;9.10;2.75;;;;;;;35.22;27.00;100511.39;1513146;85;28623;-88
2021/08/22 13:51:16;;;;;;;2.67;2.27;;;;;;;35.33;26.46;100514.12;1487805;88;21507;-89
2021/08/22 13:53:43;;;;;;;2.83;2.55;;;;;;;35.46;25.98;100511.88;1486342;88;22335;-87
2021/08/22 13:56:10;;;;;;;4.12;2.35;;;;;;;35.56;25.85;100505.33;1491786;87;22313;-87
2021/08/22 13:58:37;;;;;;;5.30;3.08;;;;;;;35.65;24.62;100501.27;1487871;87;21456;-86
2021/08/22 14:01:04;;;;;;;8.33;2.65;;;;;;;35.63;25.25;100504.91;1467884;87;21618;-88
2021/08/22 14:03:30;;;;;;;6.35;2.62;;;;;;;35.69;25.39;100498.95;1480497;88;22291;-88
2021/08/22 14:05:56;;;;;;;6.12;3.02;;;;;;;35.45;24.93;100498.45;1478160;88;21544;-88
2021/08/22 14:08:23;;;;;;;7.33;2.90;;;;;;;35.32;25.52;100503.44;1465978;87;21514;-88
2021/08/22 14:10:49;;;;;;;5.42;2.70;;;;;;;34.64;25.78;100505.20;1471420;88;22976;-87
2021/08/22 14:13:15;;;;;;;6.22;2.60;;;;;;;34.12;26.78;100499.35;1477503;88;21963;-87
2021/08/22 14:15:41;;;;;;;7.47;2.55;;;;;;;33.59;27.25;100492.84;1482289;88;23389;-88
2021/08/22 14:18:08;;;;;;;2.70;2.45;;;;;;;33.44;27.94;100493.88;1480928;87;21397;-88
2021/08/22 14:20:34;;;;;;;5.03;2.80;;;;;;;33.65;28.57;100497.13;1479549;88;21448;-88
2021/08/22 14:23:00;;;;;;;6.47;2.58;;;;;;;33.99;27.72;100493.24;1484368;87;21425;-89
2021/08/22 14:25:26;;;;;;;7.75;3.20;;;;;;;34.40;26.54;100488.92;1475732;88;22312;-89
2021/08/22 14:27:54;;;;;;;7.20;2.98;;;;;;;34.75;26.11;100486.00;1483923;87;22607;-90
2021/08/22 14:30:20;;;;;;;6.20;3.20;;;;;;;34.69;25.96;100485.86;1480170;87;22658;-90
2021/08/22 14:32:47;;;;;;;2.98;2.37;;;;;;;34.95;26.33;100473.17;1483650;88;21449;-91
2021/08/22 14:35:13;;;;;;;7.45;3.37;;;;;;;35.19;25.50;100480.35;1481028;87;21936;-91
2021/08/22 14:37:40;;;;;;;8.30;3.20;;;;;;;35.18;25.71;100475.98;1487984;87;21419;-91
2021/08/22 14:40:08;;;;;;;4.95;2.80;;;;;;;35.15;26.09;100471.91;1469406;88;21476;-91
2021/08/22 14:42:35;;;;;;;2.87;2.52;;;;;;;35.40;25.99;100473.81;1484682;88;21536;-91
2021/08/22 14:45:05;;;;;;;4.62;2.60;;;;;;;35.70;25.12;100469.48;1479954;88;21654;-91
2021/08/22 14:47:31;;;;;;;3.08;2.35;;;;;;;35.70;25.14;100468.91;1482118;87;22527;-91
2021/08/22 14:49:58;;;;;;;2.90;2.67;;;;;;;35.58;24.93;100464.56;1477749;87;21464;-91
2021/08/22 14:52:25;;;;;;;4.00;2.62;;;;;;;35.28;25.52;100467.50;1477059;87;22498;-91
2021/08/22 14:54:51;;;;;;;4.72;2.95;;;;;;;35.01;25.93;100466.43;1476140;87;21389;-91
2021/08/22 14:57:18;;;;;;;4.40;2.30;;;;;;;34.60;26.12;100456.92;1468527;89;21404;-91
2021/08/22 14:59:44;;;;;;;3.00;2.33;;;;;;;34.13;26.37;100458.41;1440800;90;21486;-91
2021/08/22 15:02:10;;;;;;;2.30;2.10;;;;;;;33.72;26.76;100458.30;1446013;89;21486;-90
2021/08/22 15:04:38;;;;;;;8.33;2.98;;;;;;;33.36;27.29;100453.41;1439942;89;22520;-90
2021/08/22 15:07:06;;;;;;;3.37;2.58;;;;;;;33.06;28.12;100453.89;1442081;90;22602;-89
2021/08/22 15:09:34;;;;;;;8.43;2.30;;;;;;;32.69;29.10;100453.58;1447501;90;21464;-90
2021/08/22 15:12:00;;;;;;;4.75;2.70;;;;;;;32.40;28.99;100455.55;1452354;88;21508;-90
2021/08/22 15:14:27;;;;;;;3.90;3.00;;;;;;;32.17;28.37;100451.72;1453209;89;21433;-90
2021/08/22 15:16:53;;;;;;;3.77;2.62;;;;;;;31.88;28.26;100452.01;1439119;90;23440;-89
2021/08/22 15:19:19;;;;;;;5.67;2.62;;;;;;;31.42;28.46;100450.25;1439277;90;21574;-89
2021/08/22 15:21:45;;;;;;;6.50;3.22;;;;;;;31.03;28.96;100449.12;1448257;88;21492;-90
2021/08/22 15:24:11;;;;;;;3.40;2.75;;;;;;;30.67;30.32;100453.13;1462208;87;21434;-89
2021/08/22 15:26:38;;;;;;;7.53;2.72;;;;;;;30.34;30.46;100442.62;1440846;89;21441;-89
2021/08/22 15:29:04;;;;;;;7.10;3.02;;;;;;;30.07;30.75;100451.70;1457002;88;21456;-90
2021/08/22 15:31:30;;;;;;;7.87;3.37;;;;;;;29.91;31.50;100457.73;1456371;88;22513;-89
2021/08/22 15:34:00;;;;;;;8.15;3.35;;;;;;;29.83;32.02;100452.27;1459684;88;21442;-89
2021/08/22 15:36:27;;;;;;;4.92;2.98;;;;;;;29.78;32.69;100453.67;1462861;88;22257;-89
2021/08/22 15:39:19;;;;;;;8.03;3.17;;;;;;;29.67;33.01;100454.22;1461582;88;21485;-90
2021/08/22 15:41:46;;;;;;;8.45;3.02;;;;;;;29.47;33.09;100450.11;1425935;88;21502;-90
2021/08/22 15:44:12;;;;;;;8.20;3.33;;;;;;;29.28;33.31;100450.37;1470839;88;21474;-90
2021/08/22 15:46:39;;;;;;;6.45;3.47;;;;;;;29.06;34.21;100447.88;1472273;88;21464;-90
2021/08/22 15:49:05;;;;;;;10.35;3.60;;;;;;;28.92;34.59;100440.77;1462451;88;21618;-89
2021/08/22 15:51:35;;;;;;;8.88;3.35;;;;;;;28.87;34.71;100443.47;1481867;87;22460;-90
2021/08/22 15:54:04;;;;;;;4.33;2.98;;;;;;;28.83;33.72;100439.63;1483739;87;21744;-90
2021/08/22 15:56:32;;;;;;;40.45;4.50;;;;;;;28.78;33.24;100445.90;1450854;87;21443;-90
2021/08/22 15:58:59;;;;;;;4.12;3.02;;;;;;;28.64;34.28;100442.86;1471400;87;22092;-89
2021/08/22 16:01:27;;;;;;;7.42;3.52;;;;;;;28.53;34.96;100445.27;1442168;88;22623;-89
2021/08/22 16:03:58;;;;;;;5.60;3.40;;;;;;;28.44;35.95;100443.59;1463968;88;21440;-89
2021/08/22 16:06:24;;;;;;;7.42;3.90;;;;;;;28.39;36.45;100444.89;1465657;88;22499;-89
2021/08/22 16:08:52;;;;;;;7.15;3.10;;;;;;;28.39;36.82;100440.00;1477290;88;21440;-90
2021/08/22 16:11:18;;;;;;;3.95;3.05;;;;;;;28.29;37.23;100439.42;1464726;88;22326;-89
2021/08/22 16:13:44;;;;;;;6.22;2.83;;;;;;;28.18;37.19;100438.55;1436133;89;21624;-90
2021/08/22 16:16:11;;;;;;;6.22;3.42;;;;;;;28.11;36.99;100440.70;1432535;90;21583;-89
2021/08/22 16:18:37;;;;;;;6.78;3.35;;;;;;;28.11;36.97;100447.50;1445334;90;21500;-89
2021/08/22 16:21:06;;;;;;;9.75;3.95;;;;;;;28.04;37.04;100450.44;1455988;89;21651;-89
2021/08/22 16:23:33;;;;;;;7.92;3.40;;;;;;;27.97;37.54;100449.05;1457400;89;22907;-90
2021/08/22 16:26:00;;;;;;;6.55;3.33;;;;;;;27.96;37.98;100445.48;1438943;90;21627;-90
2021/08/22 16:28:26;;;;;;;8.95;3.15;;;;;;;27.99;38.52;100445.50;1457457;89;21499;-90
2021/08/22 16:30:53;;;;;;;4.22;2.60;;;;;;;27.94;38.37;100446.83;1439249;91;21548;-89
2021/08/22 16:33:19;;;;;;;3.20;2.90;;;;;;;27.78;38.83;100448.06;1443126;89;22582;-90
2021/08/22 16:35:45;;;;;;;4.92;2.67;;;;;;;27.59;39.26;100449.54;1427934;91;21480;-90
2021/08/22 16:38:12;;;;;;;7.58;3.83;;;;;;;27.44;39.64;100455.67;1419952;90;21449;-89
2021/08/22 16:40:38;;;;;;;2.67;2.45;;;;;;;27.26;40.15;100450.63;1431061;91;22302;-90
2021/08/22 16:43:04;;;;;;;6.20;3.33;;;;;;;27.09;40.74;100452.07;1405392;91;21555;-89
2021/08/22 16:45:31;;;;;;;10.68;4.00;;;;;;;26.91;41.43;100456.78;1409862;91;22295;-90
2021/08/22 16:47:57;;;;;;;4.67;3.85;;;;;;;26.75;42.26;100454.96;1428352;91;21568;-89
2021/08/22 16:50:24;;;;;;;5.80;3.30;;;;;;;26.63;43.37;100452.92;1438476;91;22415;-89
2021/08/22 16:52:50;;;;;;;4.12;3.72;;;;;;;26.49;44.51;100453.27;1435269;91;21531;-89
2021/08/22 16:55:16;;;;;;;10.72;3.75;;;;;;;26.36;45.13;100455.55;1436481;90;21486;-89
2021/08/22 16:57:42;;;;;;;4.42;3.15;;;;;;;26.23;44.94;100455.37;1433292;91;21427;-89
2021/08/22 17:00:10;;;;;;;4.20;3.58;;;;;;;26.10;44.63;100456.02;1417043;91;21482;-89
2021/08/22 17:02:37;;;;;;;6.62;3.65;;;;;;;25.99;44.85;100461.55;1440180;91;22057;-89
2021/08/22 17:05:04;;;;;;;5.55;3.37;;;;;;;25.87;45.46;100457.58;1435188;90;22432;-90
2021/08/22 17:07:30;;;;;;;3.98;3.67;;;;;;;25.70;45.83;100465.69;1431601;90;21442;-88
2021/08/22 17:09:56;;;;;;;8.18;4.25;;;;;;;25.52;46.24;100461.34;1456731;88;22330;-90
2021/08/22 17:12:22;;;;;;;7.95;3.72;;;;;;;25.36;46.75;100456.72;1457877;89;21623;-87
2021/08/22 17:14:48;;;;;;;8.55;3.62;;;;;;;25.24;47.56;100458.68;1442553;89;21700;-87
2021/08/22 17:17:15;;;;;;;6.10;3.90;;;;;;;25.09;48.79;100454.60;1459867;88;22330;-88
2021/08/22 17:19:41;;;;;;;10.25;3.60;;;;;;;24.95;48.84;100458.67;1451999;89;21434;-87
2021/08/22 17:22:10;;;;;;;7.50;3.90;;;;;;;24.81;49.85;100462.72;1456178;89;21421;-87
2021/08/22 17:24:39;;;;;;;7.80;4.47;;;;;;;24.67;50.56;100453.52;1462069;88;21633;-87
2021/08/22 17:27:08;;;;;;;9.23;4.47;;;;;;;24.56;51.38;100456.26;1444871;89;22335;-87
2021/08/22 17:29:34;;;;;;;10.07;5.27;;;;;;;24.44;51.68;100457.64;1453259;89;22504;-88
2021/08/22 17:32:03;;;;;;;17.50;5.40;;;;;;;24.30;51.63;100457.86;1452622;89;21726;-87
2021/08/22 17:34:30;;;;;;;19.77;5.85;;;;;;;24.19;52.40;100455.98;1451862;89;21390;-88
2021/08/22 17:36:56;;;;;;;10.30;5.80;;;;;;;24.08;52.78;100454.11;1466187;89;22432;-88
2021/08/22 17:39:23;;;;;;;11.35;4.60;;;;;;;23.98;53.45;100448.49;1456000;89;21971;-87
2021/08/22 17:41:49;;;;;;;9.93;4.40;;;;;;;23.86;53.94;100454.72;1455357;88;22535;-87
2021/08/22 17:44:15;;;;;;;12.60;4.72;;;;;;;23.74;54.33;100453.89;1459079;88;21493;-87
2021/08/22 17:46:43;;;;;;;19.60;4.80;;;;;;;23.63;54.57;100450.63;1444785;88;23601;-87
2021/08/22 17:49:09;;;;;;;14.93;4.67;;;;;;;23.53;54.56;100452.52;1468753;87;21515;-88
2021/08/22 17:51:36;;;;;;;24.00;5.00;;;;;;;23.43;54.79;100447.70;1450824;89;21696;-86
2021/08/22 17:54:04;;;;;;;20.32;4.65;;;;;;;23.34;54.86;100455.85;1463966;89;21685;-87
2021/08/22 17:56:31;;;;;;;11.38;4.58;;;;;;;23.26;55.48;100458.88;1441767;89;22038;-87
2021/08/22 17:58:57;;;;;;;8.73;4.72;;;;;;;23.17;56.03;100454.33;1454589;89;21529;-87
2021/08/22 18:01:24;;;;;;;27.77;4.97;;;;;;;23.09;56.29;100453.83;1462884;88;21426;-88
2021/08/22 18:03:50;;;;;;;17.55;5.55;;;;;;;23.01;56.58;100452.80;1464069;88;23423;-87
2021/08/22 18:06:20;;;;;;;24.77;4.80;;;;;;;22.92;56.62;100447.69;1471911;88;21492;-87
2021/08/22 18:08:49;;;;;;;11.38;4.75;;;;;;;22.86;56.77;100445.09;1454978;88;21641;-87
2021/08/22 18:11:16;;;;;;;29.57;6.73;;;;;;;22.80;57.30;100456.27;1471912;87;21603;-88
2021/08/22 18:13:43;;;;;;;21.85;6.15;;;;;;;22.70;57.53;100451.42;1472602;88;22812;-87
2021/08/22 18:16:10;;;;;;;15.45;4.80;;;;;;;22.65;58.56;100453.14;1464286;87;21456;-87
2021/08/22 18:18:36;;;;;;;9.98;5.15;;;;;;;22.59;58.91;100447.31;1464480;88;21478;-87
2021/08/22 18:21:03;;;;;;;10.93;4.90;;;;;;;22.55;59.12;100450.14;1464591;87;21420;-87
2021/08/22 18:23:31;;;;;;;7.90;5.03;;;;;;;22.48;59.65;100451.58;1470748;88;21558;-86
2021/08/22 18:25:58;;;;;;;14.05;4.47;;;;;;;22.41;59.36;100447.63;1467480;87;21463;-87
2021/08/22 18:28:24;;;;;;;6.55;4.58;;;;;;;22.36;59.55;100449.34;1462355;88;22604;-86
2021/08/22 18:30:51;;;;;;;9.20;5.08;;;;;;;22.26;59.90;100445.80;1467609;88;21389;-87
2021/08/22 18:33:19;;;;;;;13.22;5.42;;;;;;;22.16;59.99;100460.30;1461016;88;21500;-86
2021/08/22 18:35:45;;;;;;;15.08;6.03;;;;;;;22.06;60.17;100456.75;1458610;88;21562;-88
2021/08/22 18:38:11;;;;;;;12.70;6.12;;;;;;;21.98;60.30;100458.38;1469181;88;21511;-87
2021/08/22 18:40:38;;;;;;;28.17;6.17;;;;;;;21.89;60.62;100458.38;1480535;87;21596;-87
2021/08/22 18:43:09;;;;;;;19.37;7.28;;;;;;;21.82;61.20;100462.48;1472935;87;21330;-87
2021/08/22 18:45:36;;;;;;;37.35;6.58;;;;;;;21.74;62.32;100462.75;1474003;87;21671;-86
2021/08/22 18:48:02;;;;;;;23.50;6.20;;;;;;;21.71;62.27;100467.23;1477638;87;21471;-86
2021/08/22 18:50:30;;;;;;;27.67;7.37;;;;;;;21.68;62.66;100467.68;1461369;88;21456;-87
2021/08/22 18:52:56;;;;;;;25.52;7.70;;;;;;;21.65;63.04;100465.42;1463939;88;21780;-86
2021/08/22 18:55:22;;;;;;;18.32;7.78;;;;;;;21.56;63.15;100475.12;1467464;88;21427;-86
2021/08/22 18:57:48;;;;;;;24.35;6.87;;;;;;;21.49;63.34;100470.81;1469713;88;21455;-86
2021/08/22 19:00:16;;;;;;;22.27;6.97;;;;;;;21.41;63.77;100470.58;1454354;88;21447;-86
2021/08/22 19:02:43;;;;;;;25.12;7.35;;;;;;;21.34;64.04;100477.30;1477731;87;22437;-86
2021/08/22 19:05:09;;;;;;;21.27;6.20;;;;;;;21.28;64.44;100479.52;1480892;87;22142;-87
2021/08/22 19:07:37;;;;;;;19.25;5.92;;;;;;;21.25;65.26;100480.48;1478296;88;21418;-87
2021/08/22 19:10:04;;;;;;;24.37;8.08;;;;;;;21.22;65.13;100483.60;1467077;88;22128;-87
2021/08/22 19:12:31;;;;;;;17.42;6.55;;;;;;;21.19;65.48;100482.16;1481423;87;21493;-87
2021/08/22 19:14:57;;;;;;;12.58;6.58;;;;;;;21.12;65.51;100482.21;1460715;88;23673;-87
2021/08/22 19:17:28;;;;;;;20.80;7.30;;;;;;;21.07;65.63;100486.59;1473500;87;21500;-87
2021/08/22 19:19:52;;;;;;;19.40;6.45;;;;;;;21.04;65.62;100474.39;1469457;88;21440;-86
2021/08/22 19:22:19;;;;;;;15.55;5.90;;;;;;;21.01;65.58;100481.55;1458955;88;21502;-87
2021/08/22 19:24:47;;;;;;;17.60;5.75;;;;;;;20.99;66.18;100480.92;1467051;88;21403;-87
2021/08/22 19:27:14;;;;;;;11.05;5.58;;;;;;;20.96;66.92;100481.36;1471450;87;21691;-87
2021/08/22 19:29:40;;;;;;;9.65;4.45;;;;;;;20.93;67.26;100479.92;1473456;88;21493;-86
2021/08/22 19:32:07;;;;;;;8.20;4.87;;;;;;;20.90;67.33;100475.49;1459821;88;21449;-87
2021/08/22 19:34:36;;;;;;;15.58;5.95;;;;;;;20.85;67.04;100479.34;1475359;87;22157;-87
2021/08/22 19:37:03;;;;;;;11.60;6.35;;;;;;;20.80;66.95;100480.49;1471491;87;21419;-87
2021/08/22 19:39:29;;;;;;;24.12;6.62;;;;;;;20.76;66.97;100479.28;1473182;88;21411;-86
2021/08/22 19:41:55;;;;;;;38.00;8.93;;;;;;;20.71;67.49;100486.62;1482705;87;23559;-86
2021/08/22 19:44:21;;;;;;;27.42;6.75;;;;;;;20.66;68.05;100485.94;1474803;88;21535;-87
2021/08/22 19:46:48;;;;;;;14.60;5.50;;;;;;;20.63;68.42;100486.36;1477692;87;21565;-87
2021/08/22 19:49:14;;;;;;;14.37;5.77;;;;;;;20.61;68.61;100489.78;1463095;88;21608;-88
2021/08/22 19:51:41;;;;;;;17.05;5.95;;;;;;;20.62;68.32;100482.01;1449122;89;22150;-87
2021/08/22 19:54:08;;;;;;;14.70;4.80;;;;;;;20.61;68.20;100489.78;1452092;86;23601;-87
2021/08/22 19:56:34;;;;;;;27.97;6.93;;;;;;;20.55;68.20;100485.78;1463113;88;21382;-86
2021/08/22 19:59:01;;;;;;;11.03;6.37;;;;;;;20.50;68.21;100485.02;1463018;88;21413;-87
2021/08/22 20:01:27;;;;;;;16.40;6.63;;;;;;;20.41;68.61;100480.92;1471177;88;21405;-86
2021/08/22 20:03:56;;;;;;;17.57;6.50;;;;;;;20.34;68.89;100474.72;1451821;89;21561;-87
2021/08/22 20:06:22;;;;;;;20.33;7.00;;;;;;;20.26;68.88;100472.58;1447371;88;21449;-85
2021/08/22 20:08:48;;;;;;;21.87;6.83;;;;;;;20.16;69.06;100480.75;1468539;88;21596;-86
2021/08/22 20:11:14;;;;;;;22.50;8.43;;;;;;;20.10;69.20;100481.59;1470208;88;21545;-86
2021/08/22 20:13:40;;;;;;;32.43;8.97;;;;;;;20.03;69.72;100478.41;1446837;90;21670;-86
2021/08/22 20:16:07;;;;;;;17.20;7.00;;;;;;;19.99;70.03;100476.33;1449467;89;21451;-86
2021/08/22 20:18:34;;;;;;;23.10;7.23;;;;;;;19.93;70.10;100476.64;1455274;88;21384;-89
2021/08/22 20:21:00;;;;;;;13.60;6.53;;;;;;;19.88;70.66;100475.61;1458002;88;22248;-90
2021/08/22 20:23:27;;;;;;;11.63;6.93;;;;;;;19.82;70.68;100472.74;1457974;87;21429;-89
2021/08/22 20:25:53;;;;;;;12.10;7.30;;;;;;;19.79;70.84;100477.67;1444153;90;21934;-87
2021/08/22 20:28:19;;;;;;;19.20;7.27;;;;;;;19.76;71.02;100480.26;1441449;90;21616;-91
2021/08/22 20:30:46;;;;;;;15.33;7.63;;;;;;;19.74;70.92;100479.66;1450295;90;21555;-91
2021/08/22 20:33:12;;;;;;;16.77;6.87;;;;;;;19.72;71.00;100476.34;1445011;90;22507;-88
2021/08/22 20:35:39;;;;;;;21.70;8.47;;;;;;;19.68;70.94;100480.48;1439911;89;21504;-88
2021/08/22 20:38:05;;;;;;;18.77;7.70;;;;;;;19.66;71.72;100488.44;1433060;90;21518;-88
2021/08/22 20:40:31;;;;;;;15.23;6.50;;;;;;;19.65;71.68;100483.59;1441734;90;21570;-87
2021/08/22 20:42:58;;;;;;;15.57;7.37;;;;;;;19.64;71.96;100486.43;1440968;89;21422;-88
2021/08/22 20:45:24;;;;;;;21.53;8.20;;;;;;;19.58;72.18;100488.90;1443194;88;21577;-87
2021/08/22 20:47:50;;;;;;;21.30;8.13;;;;;;;19.58;71.73;100490.76;1458084;88;22595;-88
2021/08/22 20:50:16;;;;;;;26.33;11.03;;;;;;;19.58;71.53;100490.76;1477569;87;21975;-88
2021/08/22 20:52:43;;;;;;;18.03;8.70;;;;;;;19.59;71.99;100495.94;1469315;88;22053;-88
2021/08/22 20:55:10;;;;;;;20.07;7.87;;;;;;;19.60;72.15;100506.16;1475970;88;22388;-87
2021/08/22 20:57:37;;;;;;;11.83;7.00;;;;;;;19.58;72.76;100501.50;1478586;86;21573;-87
2021/08/22 21:00:05;;;;;;;15.27;6.97;;;;;;;19.54;72.92;100500.27;1463109;86;21697;-88
2021/08/22 21:02:37;;;;;;;15.27;7.20;;;;;;;19.50;72.77;100493.64;1489038;89;23452;-88
2021/08/22 21:05:03;;;;;;;16.77;6.77;;;;;;;19.47;72.66;100488.68;1465284;88;21488;-87
2021/08/22 21:07:30;;;;;;;12.70;6.60;;;;;;;19.45;72.42;100497.44;1424380;91;22587;-89
2021/08/22 21:09:56;;;;;;;10.73;7.00;;;;;;;19.48;72.61;100493.00;1461101;88;21566;-87
2021/08/22 21:12:22;;;;;;;9.67;6.43;;;;;;;19.51;72.60;100494.78;1462554;88;23238;-87
2021/08/22 21:14:49;;;;;;;14.50;6.03;;;;;;;19.54;72.80;100502.43;1453342;89;21487;-88
2021/08/22 21:17:15;;;;;;;15.60;5.60;;;;;;;19.57;72.58;100495.83;1452179;90;22404;-88
2021/08/22 21:19:41;;;;;;;7.53;5.40;;;;;;;19.60;72.41;100494.08;1460704;88;21463;-88
2021/08/22 21:22:07;;;;;;;8.63;4.90;;;;;;;19.63;72.47;100491.50;1475808;87;21471;-88
2021/08/22 21:24:33;;;;;;;6.07;5.27;;;;;;;19.61;72.49;100495.72;1440276;88;21492;-89
2021/08/22 21:27:00;;;;;;;10.70;5.57;;;;;;;19.57;72.66;100494.48;1474153;87;21426;-88
2021/08/22 21:29:26;;;;;;;6.73;4.90;;;;;;;19.54;72.64;100496.24;1473154;87;21493;-90
2021/08/22 21:31:52;;;;;;;10.00;5.67;;;;;;;19.54;72.88;100500.27;1472727;88;22520;-91
2021/08/22 21:34:18;;;;;;;9.40;5.00;;;;;;;19.54;72.98;100501.09;1463160;87;21634;-90
2021/08/22 21:36:45;;;;;;;8.13;4.70;;;;;;;19.54;73.58;100498.41;1461497;88;22389;-89
2021/08/22 21:39:12;;;;;;;9.37;4.67;;;;;;;19.54;73.00;100501.09;1453117;87;21429;-89
2021/08/22 21:41:39;;;;;;;6.77;5.47;;;;;;;19.56;72.69;100495.01;1451993;88;21464;-91
2021/08/22 21:44:07;;;;;;;9.27;5.60;;;;;;;19.55;72.64;100498.70;1443441;87;21420;-89
2021/08/22 21:46:34;;;;;;;7.63;5.40;;;;;;;19.53;72.34;100497.25;1458069;88;21464;-90
2021/08/22 21:49:00;;;;;;;16.30;5.50;;;;;;;19.52;72.47;100496.95;1474332;88;21427;-90
2021/08/22 21:51:26;;;;;;;13.20;5.20;;;;;;;19.52;72.68;100496.95;1462079;87;22426;-91
2021/08/22 21:53:53;;;;;;;7.27;4.63;;;;;;;19.50;72.63;100488.27;1439908;88;21569;-88
2021/08/22 21:56:19;;;;;;;14.03;5.27;;;;;;;19.50;72.22;100493.64;1475127;88;21480;-86
2021/08/22 21:58:45;;;;;;;8.57;4.83;;;;;;;19.49;72.01;100494.68;1470116;88;21457;-86
2021/08/22 22:01:11;;;;;;;8.33;4.60;;;;;;;19.46;71.55;100492.41;1468223;88;21369;-86
2021/08/22 22:03:38;;;;;;;7.37;4.57;;;;;;;19.45;71.33;100492.92;1469120;88;21514;-86
2021/08/22 22:06:04;;;;;;;7.87;5.10;;;;;;;19.45;71.36;100489.39;1474808;88;22353;-87
2021/08/22 22:08:30;;;;;;;5.13;4.47;;;;;;;19.48;71.38;100491.66;1470985;88;21399;-87
2021/08/22 22:10:56;;;;;;;6.80;5.07;;;;;;;19.50;71.38;100492.30;1465484;88;21577;-87
2021/08/22 22:13:22;;;;;;;7.83;5.47;;;;;;;19.51;71.05;100481.89;1482397;88;22581;-87
2021/08/22 22:15:49;;;;;;;7.83;5.27;;;;;;;19.52;70.82;100483.53;1464802;88;21421;-89
2021/08/22 22:18:16;;;;;;;5.60;4.47;;;;;;;19.52;70.57;100476.82;1470020;88;21573;-89
2021/08/22 22:20:42;;;;;;;8.50;5.10;;;;;;;19.51;70.41;100483.23;1464940;88;21561;-88
2021/08/22 22:23:08;;;;;;;5.37;3.97;;;;;;;19.48;70.39;100473.73;1478201;88;21622;-88
2021/08/22 22:25:35;;;;;;;7.53;4.17;;;;;;;19.51;70.27;100478.69;1478082;88;22411;-89
2021/08/22 22:28:01;;;;;;;5.20;4.30;;;;;;;19.52;70.24;100475.48;1438294;89;21663;-89
2021/08/22 22:30:28;;;;;;;8.03;4.57;;;;;;;19.53;69.98;100474.44;1436068;89;21457;-90
2021/08/22 22:32:54;;;;;;;7.13;4.53;;;;;;;19.54;69.59;100470.73;1454954;89;21599;-90
2021/08/22 22:35:20;;;;;;;10.00;4.77;;;;;;;19.55;69.31;100475.06;1456775;89;21436;-90
2021/08/22 22:37:46;;;;;;;16.60;5.07;;;;;;;19.53;69.17;100469.06;1457285;89;21613;-90
2021/08/22 22:40:13;;;;;;;5.93;4.53;;;;;;;19.52;68.99;100470.11;1451435;89;22671;-90
2021/08/22 22:42:39;;;;;;;7.73;4.80;;;;;;;19.52;69.09;100470.11;1453571;89;21466;-89
2021/08/22 22:45:06;;;;;;;7.17;4.20;;;;;;;19.53;69.17;100465.05;1455757;89;21459;-89
2021/08/22 22:47:33;;;;;;;8.20;5.10;;;;;;;19.55;69.27;100467.83;1460577;89;21524;-89
2021/08/22 22:49:59;;;;;;;5.07;4.03;;;;;;;19.56;68.97;100456.08;1456946;89;22390;-89
2021/08/22 22:52:25;;;;;;;7.37;4.43;;;;;;;19.56;68.76;100455.23;1456950;89;21481;-90
2021/08/22 22:54:51;;;;;;;5.33;4.60;;;;;;;19.55;68.47;100452.25;1453137;90;21671;-88
2021/08/22 22:57:17;;;;;;;5.80;4.53;;;;;;;19.53;68.25;100450.28;1459203;89;22381;-87
2021/08/22 22:59:44;;;;;;;5.30;4.20;;;;;;;19.52;68.10;100448.64;1452417;89;21545;-88
2021/08/22 23:02:10;;;;;;;6.47;4.57;;;;;;;19.49;67.97;100443.68;1455780;90;21711;-88
2021/08/22 23:04:36;;;;;;;6.80;4.43;;;;;;;19.45;68.16;100449.12;1456405;90;21413;-88
2021/08/22 23:07:03;;;;;;;4.90;3.67;;;;;;;19.44;68.30;100437.58;1442365;89;21485;-88
2021/08/22 23:09:29;;;;;;;10.40;4.87;;;;;;;19.41;68.65;100446.56;1448512;89;22473;-88
2021/08/22 23:11:56;;;;;;;7.80;3.87;;;;;;;19.36;68.38;100443.98;1449966;90;21552;-88
2021/08/22 23:14:22;;;;;;;8.63;3.97;;;;;;;19.31;68.29;100442.95;1450414;89;23581;-87
2021/08/22 23:16:48;;;;;;;6.77;4.80;;;;;;;19.26;68.20;100444.89;1457396;89;21614;-87
2021/08/22 23:19:14;;;;;;;7.20;4.50;;;;;;;19.24;68.51;100447.46;1455245;90;21791;-87
2021/08/22 23:21:40;;;;;;;5.47;3.87;;;;;;;19.20;68.62;100444.89;1455045;90;21456;-87
2021/08/22 23:24:07;;;;;;;7.40;4.83;;;;;;;19.17;68.79;100451.48;1456181;90;21560;-87
2021/08/22 23:26:33;;;;;;;6.90;4.40;;;;;;;19.16;68.97;100444.45;1448855;90;23767;-90
2021/08/22 23:28:59;;;;;;;12.53;6.20;;;;;;;19.18;69.09;100441.05;1455410;89;21617;-88
2021/08/22 23:31:25;;;;;;;5.90;5.07;;;;;;;19.20;68.91;100440.86;1449585;89;21434;-88
2021/08/22 23:33:52;;;;;;;9.73;4.97;;;;;;;19.22;68.64;100445.00;1451253;89;21449;-88
2021/08/22 23:36:18;;;;;;;5.63;4.63;;;;;;;19.20;68.72;100440.86;1447501;90;21465;-88
2021/08/22 23:38:45;;;;;;;7.27;4.97;;;;;;;19.14;68.63;100438.48;1449886;89;23345;-88
2021/08/22 23:41:11;;;;;;;6.60;4.63;;;;;;;19.09;68.37;100433.70;1454221;90;21450;-88
2021/08/22 23:43:37;;;;;;;5.03;4.50;;;;;;;19.08;68.30;100433.93;1446319;90;22564;-87
2021/08/22 23:46:03;;;;;;;6.50;4.27;;;;;;;19.09;68.81;100434.23;1447612;89;21464;-88
2021/08/22 23:48:30;;;;;;;6.97;4.60;;;;;;;19.10;69.02;100430.51;1457624;89;21508;-88
2021/08/22 23:50:56;;;;;;;6.23;3.83;;;;;;;19.12;69.05;100427.12;1449579;89;22388;-87
2021/08/22 23:53:22;;;;;;;4.53;4.13;;;;;;;19.14;68.82;100425.89;1459940;89;21434;-89
2021/08/22 23:55:48;;;;;;;6.67;5.73;;;;;;;19.17;68.66;100421.97;1442835;90;21708;-88
2021/08/22 23:58:15;;;;;;;8.27;4.37;;;;;;;19.21;68.40;100423.20;1454980;89;21487;-88
